createdAt,value
2019-04-06T00:00:42.630Z,8.15
2019-04-06T00:03:18.658Z,8.60
2019-04-06T00:05:53.104Z,10.32
2019-04-06T00:08:24.656Z,9.35
2019-04-06T00:10:57.404Z,8.15
2019-04-06T00:13:29.793Z,9.50
2019-04-06T00:16:00.390Z,8.20
2019-04-06T00:18:32.610Z,9.10
2019-04-06T00:21:05.469Z,9.40
2019-04-06T00:23:35.635Z,10.82
2019-04-06T00:26:07.229Z,10.53
2019-04-06T00:28:40.065Z,11.12
2019-04-06T00:31:31.659Z,12.98
2019-04-06T00:34:02.621Z,9.63
2019-04-06T00:36:39.376Z,10.25
2019-04-06T00:39:12.044Z,9.30
2019-04-06T00:41:44.372Z,8.28
2019-04-06T00:44:28.293Z,8.45
2019-04-06T00:47:00.390Z,10.78
2019-04-06T00:49:35.145Z,8.73
2019-04-06T00:52:09.361Z,11.38
2019-04-06T00:54:40.616Z,15.53
2019-04-06T00:57:14.904Z,14.50
2019-04-06T00:59:47.358Z,10.58
2019-04-06T01:02:18.793Z,10.72
2019-04-06T01:04:49.631Z,10.43
2019-04-06T01:07:19.784Z,10.13
2019-04-06T01:09:51.317Z,11.18
2019-04-06T01:12:23.221Z,9.25
2019-04-06T01:14:55.391Z,9.70
2019-04-06T01:17:29.576Z,11.60
2019-04-06T01:20:03.435Z,10.10
2019-04-06T01:22:36.562Z,10.53
2019-04-06T01:25:09.174Z,12.00
2019-04-06T01:27:42.536Z,11.18
2019-04-06T01:30:15.804Z,9.80
2019-04-06T01:32:49.128Z,12.65
2019-04-06T01:35:22.239Z,12.80
2019-04-06T01:37:53.565Z,9.80
2019-04-06T01:40:25.788Z,12.30
2019-04-06T01:43:01.532Z,13.50
2019-04-06T01:45:36.461Z,13.35
2019-04-06T01:48:09.039Z,10.82
2019-04-06T01:50:43.155Z,10.28
2019-04-06T01:53:15.632Z,11.75
2019-04-06T01:55:49.176Z,12.45
2019-04-06T01:58:21.799Z,12.37
2019-04-06T02:01:07.495Z,11.15
2019-04-06T02:03:39.386Z,11.78
2019-04-06T02:06:10.307Z,12.13
2019-04-06T02:08:42.530Z,12.07
2019-04-06T02:11:14.198Z,10.63
2019-04-06T02:13:44.412Z,12.28
2019-04-06T02:16:14.968Z,11.78
2019-04-06T02:18:45.537Z,11.83
2019-04-06T02:21:17.075Z,10.68
2019-04-06T02:23:49.230Z,11.48
2019-04-06T02:26:29.639Z,11.48
2019-04-06T02:28:51.299Z,10.90
2019-04-06T02:31:36.723Z,12.70
2019-04-06T02:34:28.851Z,11.50
2019-04-06T02:37:26.761Z,11.93
2019-04-06T02:40:08.487Z,11.73
2019-04-06T02:43:02.414Z,10.10
2019-04-06T02:45:34.421Z,11.48
2019-04-06T02:48:05.088Z,13.05
2019-04-06T02:50:35.473Z,13.58
2019-04-06T02:53:08.817Z,12.53
2019-04-06T02:55:40.927Z,10.88
2019-04-06T02:58:12.298Z,11.60
2019-04-06T03:00:42.582Z,12.10
2019-04-06T03:03:12.905Z,13.03
2019-04-06T03:05:45.230Z,11.45
2019-04-06T03:08:19.543Z,12.63
2019-04-06T03:10:53.319Z,11.48
2019-04-06T03:13:26.793Z,12.95
2019-04-06T03:15:58.538Z,13.08
2019-04-06T03:18:30.540Z,12.00
2019-04-06T03:21:02.984Z,11.68
2019-04-06T03:23:49.062Z,13.08
2019-04-06T03:26:12.524Z,13.03
2019-04-06T03:28:44.775Z,12.20
2019-04-06T03:31:16.287Z,12.88
2019-04-06T03:33:49.005Z,12.25
2019-04-06T03:36:22.267Z,12.65
2019-04-06T03:38:52.456Z,14.07
2019-04-06T03:41:25.205Z,12.65
2019-04-06T03:43:55.512Z,12.75
2019-04-06T03:46:26.967Z,11.40
2019-04-06T03:49:00.053Z,13.65
2019-04-06T03:51:30.240Z,11.73
2019-04-06T03:54:01.018Z,13.03
2019-04-06T03:56:33.576Z,13.18
2019-04-06T03:59:03.691Z,13.62
2019-04-06T04:01:36.929Z,13.20
2019-04-06T04:04:09.915Z,14.40
2019-04-06T04:06:41.878Z,12.93
2019-04-06T04:09:14.992Z,13.93
2019-04-06T04:11:47.309Z,15.98
2019-04-06T04:14:18.061Z,15.45
2019-04-06T04:16:49.493Z,15.98
2019-04-06T04:19:22.336Z,17.05
2019-04-06T04:21:53.350Z,15.23
2019-04-06T04:24:25.454Z,13.25
2019-04-06T04:26:55.669Z,14.07
2019-04-06T04:29:27.067Z,13.60
2019-04-06T04:31:57.650Z,11.97
2019-04-06T04:34:27.743Z,13.43
2019-04-06T04:36:58.760Z,13.38
2019-04-06T04:39:28.905Z,13.15
2019-04-06T04:42:02.468Z,14.33
2019-04-06T04:44:32.620Z,13.35
2019-04-06T04:47:06.738Z,14.47
2019-04-06T04:49:39.150Z,15.00
2019-04-06T04:52:11.324Z,14.98
2019-04-06T04:54:41.623Z,15.83
2019-04-06T04:57:13.497Z,14.13
2019-04-06T04:59:46.429Z,14.78
2019-04-06T05:02:20.244Z,15.28
2019-04-06T05:04:51.931Z,14.45
2019-04-06T05:07:23.303Z,15.10
2019-04-06T05:09:55.759Z,14.60
2019-04-06T05:12:28.303Z,14.18
2019-04-06T05:15:01.620Z,13.45
2019-04-06T05:17:34.808Z,13.28
2019-04-06T05:20:08.549Z,14.68
2019-04-06T05:22:45.185Z,14.47
2019-04-06T05:25:22.433Z,14.03
2019-04-06T05:28:00.307Z,12.50
2019-04-06T05:30:31.257Z,13.00
2019-04-06T05:33:08.520Z,15.10
2019-04-06T05:35:41.665Z,12.75
2019-04-06T05:38:18.047Z,13.10
2019-04-06T05:40:48.695Z,14.50
2019-04-06T05:43:22.222Z,13.15
2019-04-06T05:46:04.107Z,12.50
2019-04-06T05:48:38.855Z,14.68
2019-04-06T05:51:10.603Z,16.25
2019-04-06T05:53:58.330Z,14.50
2019-04-06T05:56:33.789Z,16.85
2019-04-06T05:59:04.622Z,17.10
2019-04-06T06:01:41.003Z,15.53
2019-04-06T06:04:12.486Z,14.75
2019-04-06T06:06:47.863Z,13.75
2019-04-06T06:12:14.936Z,17.55
2019-04-06T06:14:46.879Z,14.90
2019-04-06T06:17:22.741Z,15.43
2019-04-06T06:19:57.119Z,17.73
2019-04-06T06:26:17.231Z,16.23
2019-04-06T06:29:02.600Z,15.00
2019-04-06T06:32:18.281Z,16.90
2019-04-06T06:35:35.440Z,18.60
2019-04-06T06:38:08.398Z,18.27
2019-04-06T06:40:45.521Z,18.15
2019-04-06T06:43:40.832Z,16.15
2019-04-06T06:46:35.568Z,17.17
2019-04-06T06:49:08.996Z,17.87
2019-04-06T06:51:44.048Z,19.87
2019-04-06T06:54:14.255Z,20.52
2019-04-06T06:56:45.555Z,20.25
2019-04-06T06:59:22.862Z,19.50
2019-04-06T07:01:58.427Z,19.87
2019-04-06T07:04:29.266Z,22.52
2019-04-06T07:06:59.804Z,20.27
2019-04-06T07:09:39.434Z,24.07
2019-04-06T07:12:13.341Z,22.32
2019-04-06T07:14:46.328Z,22.48
2019-04-06T07:17:18.719Z,21.07
2019-04-06T07:19:53.981Z,21.63
2019-04-06T07:22:28.367Z,21.27
2019-04-06T07:25:00.650Z,25.08
2019-04-06T07:27:32.710Z,24.10
2019-04-06T07:30:07.062Z,22.73
2019-04-06T07:32:39.282Z,23.52
2019-04-06T07:39:09.398Z,21.80
2019-04-06T07:41:45.595Z,20.88
2019-04-06T07:44:27.217Z,20.70
2019-04-06T07:47:03.800Z,24.95
2019-04-06T07:49:46.608Z,23.18
2019-04-06T07:53:01.188Z,21.60
2019-04-06T07:59:43.571Z,22.58
2019-04-06T08:02:20.055Z,24.55
2019-04-06T08:11:55.539Z,25.68
2019-04-06T08:14:57.410Z,27.82
2019-04-06T08:24:27.608Z,27.40
2019-04-06T08:31:13.413Z,28.73
2019-04-06T08:33:45.823Z,25.52
2019-04-06T08:36:16.455Z,29.85
2019-04-06T08:38:48.807Z,30.25
2019-04-06T08:41:22.038Z,25.72
2019-04-06T08:43:56.356Z,29.23
2019-04-06T08:46:27.101Z,26.30
2019-04-06T08:48:58.876Z,25.60
2019-04-06T08:51:30.786Z,24.50
2019-04-06T08:54:03.171Z,25.48
2019-04-06T08:56:34.308Z,23.95
2019-04-06T08:59:13.673Z,26.20
2019-04-06T09:01:48.083Z,23.77
2019-04-06T09:04:22.935Z,26.60
2019-04-06T09:06:55.304Z,27.65
2019-04-06T09:09:30.950Z,27.75
2019-04-06T09:12:26.787Z,25.25
2019-04-06T09:14:59.339Z,24.72
2019-04-06T09:17:34.747Z,24.25
2019-04-06T09:20:06.357Z,20.90
2019-04-06T09:22:40.128Z,24.15
2019-04-06T09:25:27.301Z,23.45
2019-04-06T09:27:57.817Z,23.00
2019-04-06T09:30:31.552Z,24.98
2019-04-06T09:33:03.219Z,26.77
2019-04-06T09:35:36.330Z,24.07
2019-04-06T09:38:09.901Z,22.17
2019-04-06T09:40:42.187Z,23.25
2019-04-06T09:43:13.691Z,25.25
2019-04-06T09:46:01.868Z,25.25
2019-04-06T09:49:06.749Z,23.73
2019-04-06T09:52:07.781Z,24.00
2019-04-06T09:55:09.464Z,23.22
2019-04-06T09:57:52.650Z,23.92
2019-04-06T10:00:52.637Z,24.50
2019-04-06T10:03:51.694Z,25.65
2019-04-06T10:06:50.883Z,22.80
2019-04-06T10:09:43.753Z,25.77
2019-04-06T10:12:37.235Z,26.82
2019-04-06T10:15:27.069Z,27.58
2019-04-06T10:18:03.694Z,24.35
2019-04-06T10:20:43.277Z,27.48
2019-04-06T10:23:53.448Z,26.12
2019-04-06T10:26:48.505Z,24.67
2019-04-06T10:29:50.037Z,23.85
2019-04-06T10:32:54.733Z,25.70
2019-04-06T10:35:57.494Z,23.05
2019-04-06T10:38:50.855Z,24.77
2019-04-06T10:41:45.549Z,24.50
2019-04-06T10:44:36.635Z,25.35
2019-04-06T10:47:42.168Z,26.45
2019-04-06T10:50:23.094Z,24.50
2019-04-06T10:53:15.856Z,25.62
2019-04-06T10:56:11.634Z,23.50
2019-04-06T10:58:58.085Z,25.45
2019-04-06T11:01:46.454Z,26.12
2019-04-06T11:04:35.486Z,27.27
2019-04-06T11:07:23.515Z,27.32
2019-04-06T11:10:27.023Z,24.63
2019-04-06T11:13:37.228Z,26.85
2019-04-06T11:16:36.540Z,25.27
2019-04-06T11:19:39.247Z,24.77
2019-04-06T11:22:19.205Z,23.00
2019-04-06T11:25:10.539Z,24.35
2019-04-06T11:28:00.096Z,23.20
2019-04-06T11:30:54.123Z,27.37
2019-04-06T11:34:11.729Z,24.12
2019-04-06T11:37:02.611Z,21.60
2019-04-06T11:39:40.619Z,21.85
2019-04-06T11:42:26.586Z,26.37
2019-04-06T11:45:08.819Z,22.07
2019-04-06T11:48:00.983Z,22.75
2019-04-06T11:50:53.242Z,20.65
2019-04-06T11:53:46.997Z,22.80
2019-04-06T11:56:37.656Z,24.85
2019-04-06T11:59:27.204Z,27.15
2019-04-06T12:02:07.613Z,24.60
2019-04-06T12:04:48.343Z,26.50
2019-04-06T12:07:46.822Z,22.70
2019-04-06T12:10:45.269Z,22.82
2019-04-06T12:13:52.670Z,21.35
2019-04-06T12:16:52.632Z,21.00
2019-04-06T12:19:50.923Z,21.80
2019-04-06T12:22:40.182Z,20.97
2019-04-06T12:25:29.921Z,18.25
2019-04-06T12:28:10.660Z,20.90
2019-04-06T12:30:51.552Z,18.48
2019-04-06T12:33:50.053Z,20.72
2019-04-06T12:36:30.875Z,17.70
2019-04-06T12:39:27.921Z,19.82
2019-04-06T12:42:15.726Z,20.17
2019-04-06T12:45:03.180Z,18.98
2019-04-06T12:47:51.588Z,19.77
2019-04-06T12:50:33.829Z,18.15
2019-04-06T12:53:29.005Z,17.45
2019-04-06T12:56:08.000Z,18.60
2019-04-06T12:58:55.208Z,17.80
2019-04-06T13:01:46.564Z,17.98
2019-04-06T13:04:50.557Z,14.47
2019-04-06T13:07:30.550Z,15.72
2019-04-06T13:10:10.641Z,17.25
2019-04-06T13:13:09.053Z,15.72
2019-04-06T13:15:50.797Z,15.72
2019-04-06T13:18:37.450Z,15.58
2019-04-06T13:21:25.883Z,14.55
2019-04-06T13:24:14.895Z,16.37
2019-04-06T13:27:05.331Z,15.40
2019-04-06T13:30:14.293Z,14.58
2019-04-06T13:33:08.670Z,14.53
2019-04-06T13:35:47.794Z,16.75
2019-04-06T13:38:45.852Z,15.50
2019-04-06T13:41:37.717Z,14.65
2019-04-06T13:44:26.911Z,15.30
2019-04-06T13:47:22.887Z,15.35
2019-04-06T13:50:17.848Z,14.18
2019-04-06T13:53:17.035Z,14.27
2019-04-06T13:56:06.278Z,15.37
2019-04-06T13:59:07.618Z,15.43
2019-04-06T14:01:59.172Z,14.50
2019-04-06T14:04:51.669Z,15.20
2019-04-06T14:07:40.247Z,14.77
2019-04-06T14:10:40.025Z,14.33
2019-04-06T14:13:34.680Z,15.48
2019-04-06T14:16:43.204Z,15.47
2019-04-06T14:19:42.449Z,14.10
2019-04-06T14:22:44.492Z,14.00
2019-04-06T14:25:48.876Z,13.40
2019-04-06T14:32:02.074Z,14.90
2019-04-06T14:35:17.930Z,14.50
2019-04-06T14:38:50.756Z,13.80
2019-04-06T14:41:46.087Z,16.33
2019-04-06T14:44:38.285Z,16.48
2019-04-06T14:47:37.559Z,16.90
2019-04-06T14:50:42.041Z,14.63
2019-04-06T14:53:26.234Z,15.37
2019-04-06T14:56:23.400Z,14.77
2019-04-06T15:00:01.154Z,15.10
2019-04-06T15:02:48.432Z,15.78
2019-04-06T15:05:43.296Z,15.13
2019-04-06T15:08:45.911Z,15.35
2019-04-06T15:11:55.055Z,14.45
2019-04-06T15:15:10.967Z,14.77
2019-04-06T15:26:01.218Z,14.87
2019-04-06T15:29:19.287Z,14.58
2019-04-06T15:32:04.297Z,16.12
2019-04-06T15:34:55.576Z,15.50
2019-04-06T15:42:01.525Z,17.92
2019-04-06T15:44:47.036Z,16.35
2019-04-06T15:47:39.056Z,15.43
2019-04-06T16:05:59.556Z,15.72
2019-04-06T16:08:57.059Z,14.95
2019-04-06T17:14:45.071Z,12.40
2019-04-06T17:17:46.250Z,14.75
2019-04-06T17:20:34.161Z,15.25
2019-04-06T17:23:37.399Z,12.63
2019-04-06T17:26:36.081Z,13.10
2019-04-06T17:29:28.130Z,14.10
2019-04-06T17:32:16.066Z,13.80
2019-04-06T17:35:19.527Z,12.20
2019-04-06T17:38:16.902Z,12.33
2019-04-06T17:41:00.901Z,13.45
2019-04-06T17:44:05.916Z,14.73
2019-04-06T17:47:13.379Z,16.15
2019-04-06T17:50:05.291Z,16.02
2019-04-06T17:52:51.419Z,13.78
2019-04-06T17:56:06.945Z,15.10
2019-04-06T18:12:26.411Z,8.93
2019-04-06T18:15:10.853Z,9.45
2019-04-06T18:17:44.740Z,11.12
2019-04-06T18:20:15.586Z,9.45
2019-04-06T18:22:52.935Z,10.30
2019-04-06T18:25:25.293Z,9.48
2019-04-06T18:27:57.200Z,9.75
2019-04-06T18:33:27.516Z,10.43
2019-04-06T18:37:05.096Z,9.50
2019-04-06T18:42:43.506Z,10.50
2019-04-06T18:45:23.189Z,12.70
2019-04-06T18:48:09.136Z,12.10
2019-04-06T18:50:43.033Z,10.93
2019-04-06T18:56:28.250Z,10.05
2019-04-06T18:59:03.978Z,11.05
2019-04-06T19:01:39.245Z,11.05
2019-04-06T19:04:14.316Z,10.82
2019-04-06T19:06:56.858Z,8.28
2019-04-06T19:09:43.252Z,9.23
2019-04-06T19:12:36.878Z,10.25
2019-04-06T19:15:15.121Z,9.18
2019-04-06T19:17:55.130Z,10.38
2019-04-06T19:20:30.882Z,10.53
2019-04-06T19:23:40.131Z,12.20
2019-04-06T19:26:10.809Z,10.55
2019-04-06T19:28:47.365Z,10.40
2019-04-06T19:31:19.718Z,9.85
2019-04-06T19:33:52.881Z,12.28
2019-04-06T19:36:29.887Z,11.22
2019-04-06T19:39:08.708Z,10.48
2019-04-06T19:41:40.734Z,11.35
2019-04-06T19:44:14.721Z,11.10
2019-04-06T19:46:53.366Z,12.00
2019-04-06T19:52:37.629Z,11.25
2019-04-06T19:55:14.838Z,10.58
2019-04-06T19:57:57.576Z,9.90
2019-04-06T20:00:50.152Z,10.32
2019-04-06T20:03:36.004Z,10.93
2019-04-06T20:06:11.648Z,9.78
2019-04-06T20:08:45.237Z,10.40
2019-04-06T20:11:27.426Z,13.83
2019-04-06T20:14:18.337Z,10.88
2019-04-06T20:17:16.578Z,10.60
2019-04-06T20:23:16.670Z,10.38
2019-04-06T20:26:03.429Z,9.93
2019-04-06T20:28:46.907Z,11.03
2019-04-06T20:31:35.596Z,12.90
2019-04-06T20:34:07.679Z,13.25
2019-04-06T20:36:40.840Z,13.45
2019-04-06T20:39:25.582Z,12.93
2019-04-06T20:42:00.932Z,14.85
2019-04-06T20:45:06.613Z,12.00
2019-04-06T20:50:23.803Z,12.13
2019-04-06T20:55:57.049Z,11.85
2019-04-06T20:58:39.396Z,12.70
2019-04-06T21:01:13.545Z,12.90
2019-04-06T21:04:02.862Z,12.15
2019-04-06T21:06:38.085Z,11.73
2019-04-06T21:12:13.039Z,11.05
2019-04-06T21:15:15.446Z,11.15
2019-04-06T21:17:49.410Z,12.20
2019-04-06T21:20:24.351Z,11.60
2019-04-06T21:23:01.849Z,12.20
2019-04-06T21:25:36.496Z,12.80
2019-04-06T21:28:14.418Z,13.93
2019-04-06T21:30:58.641Z,12.80
2019-04-06T21:33:34.156Z,13.30
2019-04-06T21:36:35.074Z,12.90
2019-04-06T21:39:18.635Z,14.10
2019-04-06T21:42:03.634Z,13.45
2019-04-06T21:44:57.486Z,14.25
2019-04-06T21:47:34.005Z,13.10
2019-04-06T21:50:13.683Z,14.33
2019-04-06T21:52:55.791Z,12.95
2019-04-06T21:56:02.170Z,14.53
2019-04-06T22:01:52.892Z,12.13
2019-04-06T22:04:48.588Z,12.65
2019-04-06T22:10:28.724Z,14.38
2019-04-06T22:13:02.644Z,15.18
2019-04-06T22:15:33.968Z,13.50
2019-04-06T22:18:07.827Z,17.50
2019-04-06T22:20:42.143Z,15.53
2019-04-06T22:23:17.846Z,16.20
2019-04-06T22:25:53.606Z,18.23
2019-04-06T22:28:24.458Z,15.98
2019-04-06T22:30:56.299Z,14.58
2019-04-06T22:33:26.742Z,14.85
2019-04-06T22:38:50.443Z,15.45
2019-04-06T22:41:21.082Z,15.38
2019-04-06T22:44:03.368Z,16.67
2019-04-06T22:46:38.040Z,13.88
2019-04-06T22:49:11.240Z,14.75
2019-04-06T22:51:49.650Z,15.15
2019-04-06T22:54:22.975Z,14.43
2019-04-06T22:56:54.353Z,15.83
2019-04-06T22:59:31.137Z,14.73
2019-04-06T23:02:07.715Z,16.48
2019-04-06T23:04:59.279Z,17.25
2019-04-06T23:07:33.881Z,15.58
2019-04-06T23:10:06.307Z,17.17
2019-04-06T23:12:42.445Z,17.02
2019-04-06T23:15:18.004Z,18.52
2019-04-06T23:17:52.186Z,16.67
2019-04-06T23:20:28.037Z,15.55
2019-04-06T23:23:01.525Z,16.07
2019-04-06T23:25:34.895Z,15.15
2019-04-06T23:28:06.079Z,15.32
2019-04-06T23:30:37.546Z,14.15
2019-04-06T23:33:11.167Z,15.38
2019-04-06T23:35:44.941Z,15.18
2019-04-06T23:38:17.848Z,15.00
2019-04-06T23:40:50.924Z,14.50
2019-04-06T23:43:22.747Z,16.62
2019-04-06T23:45:59.168Z,16.05
2019-04-06T23:48:31.318Z,16.87
2019-04-06T23:51:07.827Z,15.75
2019-04-06T23:53:39.998Z,16.15
2019-04-06T23:56:22.185Z,17.32
2019-04-06T23:58:53.570Z,16.52
